sensor_id;sensor_type;location;lat;lon;timestamp;pressure;altitude;pressure_sealevel;temperature;humidity
49367;BME280;35245;52.026;8.540;2023-01-16T00:02:15;51153.44;;;-145.42;100.00
49367;BME280;35245;52.026;8.540;2023-01-16T00:04:42;51137.56;;;-145.42;100.00
49367;BME280;35245;52.026;8.540;2023-01-16T00:07:09;51139.56;;;-145.42;100.00
49367;BME280;35245;52.026;8.540;2023-01-16T00:09:37;51129.63;;;-145.42;100.00
49367;BME280;35245;52.026;8.540;2023-01-16T00:12:04;51125.69;;;-145.42;100.00
49367;BME280;35245;52.026;8.540;2023-01-16T00:14:31;51109.81;;;-145.42;100.00
49367;BME280;35245;52.026;8.540;2023-01-16T00:17:00;51097.91;;;-145.42;100.00
49367;BME280;35245;52.026;8.540;2023-01-16T00:19:27;51080.09;;;-145.42;100.00
49367;BME280;35245;52.026;8.540;2023-01-16T00:21:54;51056.28;;;-145.42;100.00
49367;BME280;35245;52.026;8.540;2023-01-16T00:24:21;51078.09;;;-145.42;100.00
49367;BME280;35245;52.026;8.540;2023-01-16T00:26:50;51074.13;;;-145.42;100.00
49367;BME280;35245;52.026;8.540;2023-01-16T00:29:18;51046.38;;;-145.42;100.00
49367;BME280;35245;52.026;8.540;2023-01-16T00:31:45;51046.38;;;-145.42;100.00
49367;BME280;35245;52.026;8.540;2023-01-16T00:34:13;51044.41;;;-145.42;100.00
49367;BME280;35245;52.026;8.540;2023-01-16T00:36:41;51054.31;;;-145.42;100.00
49367;BME280;35245;52.026;8.540;2023-01-16T00:39:08;51074.13;;;-145.42;100.00
49367;BME280;35245;52.026;8.540;2023-01-16T00:41:35;51074.13;;;-145.42;100.00
49367;BME280;35245;52.026;8.540;2023-01-16T00:44:03;51086.03;;;-145.42;100.00
49367;BME280;35245;52.026;8.540;2023-01-16T00:46:30;51093.97;;;-145.42;100.00
49367;BME280;35245;52.026;8.540;2023-01-16T00:48:57;51078.09;;;-145.42;100.00
49367;BME280;35245;52.026;8.540;2023-01-16T00:51:26;51066.22;;;-145.42;100.00
49367;BME280;35245;52.026;8.540;2023-01-16T00:53:53;51056.28;;;-145.42;100.00
49367;BME280;35245;52.026;8.540;2023-01-16T00:56:20;51044.41;;;-145.42;100.00
49367;BME280;35245;52.026;8.540;2023-01-16T00:58:47;51004.75;;;-145.42;100.00
49367;BME280;35245;52.026;8.540;2023-01-16T01:01:15;51044.41;;;-145.42;100.00
49367;BME280;35245;52.026;8.540;2023-01-16T01:03:42;51036.47;;;-145.42;100.00
49367;BME280;35245;52.026;8.540;2023-01-16T01:06:10;51040.44;;;-145.42;100.00
49367;BME280;35245;52.026;8.540;2023-01-16T01:08:39;51036.47;;;-145.42;100.00
49367;BME280;35245;52.026;8.540;2023-01-16T01:11:08;51084.03;;;-145.42;100.00
49367;BME280;35245;52.026;8.540;2023-01-16T01:13:36;51086.03;;;-145.42;100.00
49367;BME280;35245;52.026;8.540;2023-01-16T01:16:04;51076.13;;;-145.42;100.00
49367;BME280;35245;52.026;8.540;2023-01-16T01:18:31;51072.16;;;-145.42;100.00
49367;BME280;35245;52.026;8.540;2023-01-16T01:20:59;51080.09;;;-145.42;100.00
49367;BME280;35245;52.026;8.540;2023-01-16T01:23:26;51099.91;;;-145.42;100.00
49367;BME280;35245;52.026;8.540;2023-01-16T01:25:55;51088.00;;;-145.42;100.00
49367;BME280;35245;52.026;8.540;2023-01-16T01:28:22;51086.03;;;-145.42;100.00
49367;BME280;35245;52.026;8.540;2023-01-16T01:30:49;51070.16;;;-145.42;100.00
49367;BME280;35245;52.026;8.540;2023-01-16T01:33:16;51076.13;;;-145.42;100.00
49367;BME280;35245;52.026;8.540;2023-01-16T01:35:43;51088.00;;;-145.42;100.00
49367;BME280;35245;52.026;8.540;2023-01-16T01:38:11;51078.09;;;-145.42;100.00
49367;BME280;35245;52.026;8.540;2023-01-16T01:40:38;51072.16;;;-145.42;100.00
49367;BME280;35245;52.026;8.540;2023-01-16T01:43:13;51040.44;;;-145.42;100.00
49367;BME280;35245;52.026;8.540;2023-01-16T01:45:41;51038.47;;;-145.42;100.00
49367;BME280;35245;52.026;8.540;2023-01-16T01:48:23;51042.41;;;-145.42;100.00
49367;BME280;35245;52.026;8.540;2023-01-16T01:50:55;51030.53;;;-145.42;100.00
49367;BME280;35245;52.026;8.540;2023-01-16T01:53:29;51008.72;;;-145.42;100.00
49367;BME280;35245;52.026;8.540;2023-01-16T01:56:01;50998.81;;;-145.42;100.00
49367;BME280;35245;52.026;8.540;2023-01-16T01:58:33;51004.75;;;-145.42;100.00
49367;BME280;35245;52.026;8.540;2023-01-16T02:01:01;51002.78;;;-145.42;100.00
49367;BME280;35245;52.026;8.540;2023-01-16T02:03:34;50984.94;;;-145.42;100.00
49367;BME280;35245;52.026;8.540;2023-01-16T02:06:08;50982.97;;;-145.42;100.00
49367;BME280;35245;52.026;8.540;2023-01-16T02:08:41;50931.41;;;-145.42;100.00
49367;BME280;35245;52.026;8.540;2023-01-16T02:11:15;50903.66;;;-145.42;100.00
49367;BME280;35245;52.026;8.540;2023-01-16T02:13:55;50913.56;;;-145.42;100.00
49367;BME280;35245;52.026;8.540;2023-01-16T02:16:23;50951.25;;;-145.42;100.00
49367;BME280;35245;52.026;8.540;2023-01-16T02:19:14;50947.28;;;-145.42;100.00
49367;BME280;35245;52.026;8.540;2023-01-16T02:22:45;50913.56;;;-145.42;100.00
49367;BME280;35245;52.026;8.540;2023-01-16T02:25:45;50907.63;;;-145.42;100.00
49367;BME280;35245;52.026;8.540;2023-01-16T02:31:41;50917.53;;;-145.42;100.00
49367;BME280;35245;52.026;8.540;2023-01-16T02:34:38;50933.41;;;-145.42;100.00
49367;BME280;35245;52.026;8.540;2023-01-16T02:37:17;50923.50;;;-145.42;100.00
49367;BME280;35245;52.026;8.540;2023-01-16T02:39:55;50923.50;;;-145.42;100.00
49367;BME280;35245;52.026;8.540;2023-01-16T02:42:33;50941.31;;;-145.42;100.00
49367;BME280;35245;52.026;8.540;2023-01-16T02:45:14;50899.69;;;-145.42;100.00
49367;BME280;35245;52.026;8.540;2023-01-16T02:47:52;50961.16;;;-145.42;100.00
49367;BME280;35245;52.026;8.540;2023-01-16T02:50:27;50945.28;;;-145.42;100.00
49367;BME280;35245;52.026;8.540;2023-01-16T02:53:02;50905.66;;;-145.42;100.00
49367;BME280;35245;52.026;8.540;2023-01-16T02:55:42;50909.63;;;-145.42;100.00
49367;BME280;35245;52.026;8.540;2023-01-16T02:58:13;50927.44;;;-145.42;100.00
49367;BME280;35245;52.026;8.540;2023-01-16T03:00:50;50917.53;;;-145.42;100.00
49367;BME280;35245;52.026;8.540;2023-01-16T03:03:41;50953.22;;;-145.42;100.00
49367;BME280;35245;52.026;8.540;2023-01-16T03:06:27;50945.28;;;-145.42;100.00
49367;BME280;35245;52.026;8.540;2023-01-16T03:09:11;50982.97;;;-145.42;100.00
49367;BME280;35245;52.026;8.540;2023-01-16T03:11:51;50959.16;;;-145.42;100.00
49367;BME280;35245;52.026;8.540;2023-01-16T03:14:31;50984.94;;;-145.42;100.00
49367;BME280;35245;52.026;8.540;2023-01-16T03:17:13;50979.00;;;-145.42;100.00
49367;BME280;35245;52.026;8.540;2023-01-16T03:20:00;50965.13;;;-145.42;100.00
49367;BME280;35245;52.026;8.540;2023-01-16T03:22:38;50915.56;;;-145.42;100.00
49367;BME280;35245;52.026;8.540;2023-01-16T03:25:19;50901.69;;;-145.42;100.00
49367;BME280;35245;52.026;8.540;2023-01-16T03:27:57;50939.34;;;-145.42;100.00
49367;BME280;35245;52.026;8.540;2023-01-16T03:30:33;50913.56;;;-145.42;100.00
49367;BME280;35245;52.026;8.540;2023-01-16T03:33:07;50840.25;;;-145.42;100.00
49367;BME280;35245;52.026;8.540;2023-01-16T03:35:44;50848.16;;;-145.42;100.00
49367;BME280;35245;52.026;8.540;2023-01-16T03:38:15;50812.50;;;-145.42;100.00
49367;BME280;35245;52.026;8.540;2023-01-16T03:40:46;50852.13;;;-145.42;100.00
49367;BME280;35245;52.026;8.540;2023-01-16T03:43:20;50919.53;;;-145.42;100.00
49367;BME280;35245;52.026;8.540;2023-01-16T03:45:54;50885.81;;;-145.42;100.00
49367;BME280;35245;52.026;8.540;2023-01-16T03:48:30;50856.09;;;-145.42;100.00
49367;BME280;35245;52.026;8.540;2023-01-16T03:51:06;50836.28;;;-145.42;100.00
49367;BME280;35245;52.026;8.540;2023-01-16T03:53:38;50840.25;;;-145.42;100.00
49367;BME280;35245;52.026;8.540;2023-01-16T03:56:13;50858.06;;;-145.42;100.00
49367;BME280;35245;52.026;8.540;2023-01-16T03:58:46;50864.03;;;-145.42;100.00
49367;BME280;35245;52.026;8.540;2023-01-16T04:01:23;50868.00;;;-145.42;100.00
49367;BME280;35245;52.026;8.540;2023-01-16T04:04:01;50848.16;;;-145.42;100.00
49367;BME280;35245;52.026;8.540;2023-01-16T04:06:36;50858.06;;;-145.42;100.00
49367;BME280;35245;52.026;8.540;2023-01-16T04:09:12;50921.50;;;-145.42;100.00
49367;BME280;35245;52.026;8.540;2023-01-16T04:11:41;50917.53;;;-145.42;100.00
49367;BME280;35245;52.026;8.540;2023-01-16T04:14:12;50913.56;;;-145.42;100.00
49367;BME280;35245;52.026;8.540;2023-01-16T04:16:41;50929.44;;;-145.42;100.00
49367;BME280;35245;52.026;8.540;2023-01-16T04:19:12;50945.28;;;-145.42;100.00
49367;BME280;35245;52.026;8.540;2023-01-16T04:21:45;50967.09;;;-145.42;100.00
49367;BME280;35245;52.026;8.540;2023-01-16T04:24:13;50980.97;;;-145.42;100.00
49367;BME280;35245;52.026;8.540;2023-01-16T04:26:41;51012.69;;;-145.42;100.00
49367;BME280;35245;52.026;8.540;2023-01-16T04:29:08;50969.06;;;-145.42;100.00
49367;BME280;35245;52.026;8.540;2023-01-16T04:31:35;50973.03;;;-145.42;100.00
49367;BME280;35245;52.026;8.540;2023-01-16T04:34:03;51040.44;;;-145.42;100.00
49367;BME280;35245;52.026;8.540;2023-01-16T04:36:30;51010.72;;;-145.42;100.00
49367;BME280;35245;52.026;8.540;2023-01-16T04:38:59;51010.72;;;-145.42;100.00
49367;BME280;35245;52.026;8.540;2023-01-16T04:41:26;51024.59;;;-145.42;100.00
49367;BME280;35245;52.026;8.540;2023-01-16T04:44:05;51014.66;;;-145.42;100.00
49367;BME280;35245;52.026;8.540;2023-01-16T04:46:33;51050.34;;;-145.42;100.00
49367;BME280;35245;52.026;8.540;2023-01-16T04:49:00;51054.31;;;-145.42;100.00
49367;BME280;35245;52.026;8.540;2023-01-16T04:51:27;51026.56;;;-145.42;100.00
49367;BME280;35245;52.026;8.540;2023-01-16T04:53:56;51056.28;;;-145.42;100.00
49367;BME280;35245;52.026;8.540;2023-01-16T04:56:25;51056.28;;;-145.42;100.00
49367;BME280;35245;52.026;8.540;2023-01-16T04:58:52;51044.41;;;-145.42;100.00
49367;BME280;35245;52.026;8.540;2023-01-16T05:01:20;51042.41;;;-145.42;100.00
49367;BME280;35245;52.026;8.540;2023-01-16T05:03:47;51050.34;;;-145.42;100.00
49367;BME280;35245;52.026;8.540;2023-01-16T05:06:14;51034.50;;;-145.42;100.00
49367;BME280;35245;52.026;8.540;2023-01-16T05:08:42;51028.53;;;-145.42;100.00
49367;BME280;35245;52.026;8.540;2023-01-16T05:11:09;51024.59;;;-145.42;100.00
49367;BME280;35245;52.026;8.540;2023-01-16T05:13:38;51018.63;;;-145.42;100.00
49367;BME280;35245;52.026;8.540;2023-01-16T05:16:06;51004.75;;;-145.42;100.00
49367;BME280;35245;52.026;8.540;2023-01-16T05:18:33;51012.69;;;-145.42;100.00
49367;BME280;35245;52.026;8.540;2023-01-16T05:21:00;51026.56;;;-145.42;100.00
49367;BME280;35245;52.026;8.540;2023-01-16T05:23:28;50992.88;;;-145.42;100.00
49367;BME280;35245;52.026;8.540;2023-01-16T05:25:55;50953.22;;;-145.42;100.00
49367;BME280;35245;52.026;8.540;2023-01-16T05:28:22;50907.63;;;-145.42;100.00
49367;BME280;35245;52.026;8.540;2023-01-16T05:30:51;50879.88;;;-145.42;100.00
49367;BME280;35245;52.026;8.540;2023-01-16T05:33:18;50854.13;;;-145.42;100.00
49367;BME280;35245;52.026;8.540;2023-01-16T05:35:46;50764.91;;;-145.42;100.00
49367;BME280;35245;52.026;8.540;2023-01-16T05:38:14;50753.03;;;-145.42;100.00
49367;BME280;35245;52.026;8.540;2023-01-16T05:40:42;50780.78;;;-145.42;100.00
49367;BME280;35245;52.026;8.540;2023-01-16T05:43:10;50669.78;;;-145.42;100.00
49367;BME280;35245;52.026;8.540;2023-01-16T05:45:38;50693.56;;;-145.42;100.00
49367;BME280;35245;52.026;8.540;2023-01-16T05:48:07;50653.94;;;-145.42;100.00
49367;BME280;35245;52.026;8.540;2023-01-16T05:50:35;50695.53;;;-145.42;100.00
49367;BME280;35245;52.026;8.540;2023-01-16T05:53:02;50612.31;;;-145.42;100.00
49367;BME280;35245;52.026;8.540;2023-01-16T05:55:30;50618.25;;;-145.42;100.00
49367;BME280;35245;52.026;8.540;2023-01-16T05:57:57;50624.19;;;-145.42;100.00
49367;BME280;35245;52.026;8.540;2023-01-16T06:00:24;50731.22;;;-145.42;100.00
49367;BME280;35245;52.026;8.540;2023-01-16T06:02:51;50711.41;;;-145.42;100.00
49367;BME280;35245;52.026;8.540;2023-01-16T06:05:20;50634.09;;;-145.42;100.00
49367;BME280;35245;52.026;8.540;2023-01-16T06:07:47;50755.00;;;-145.42;100.00
49367;BME280;35245;52.026;8.540;2023-01-16T06:10:15;50717.34;;;-145.42;100.00
49367;BME280;35245;52.026;8.540;2023-01-16T06:12:42;50699.50;;;-145.42;100.00
49367;BME280;35245;52.026;8.540;2023-01-16T06:15:10;50693.56;;;-145.42;100.00
49367;BME280;35245;52.026;8.540;2023-01-16T06:17:37;50679.69;;;-145.42;100.00
49367;BME280;35245;52.026;8.540;2023-01-16T06:20:05;50806.53;;;-145.42;100.00
49367;BME280;35245;52.026;8.540;2023-01-16T06:22:34;50860.06;;;-145.42;100.00
49367;BME280;35245;52.026;8.540;2023-01-16T06:25:01;50802.56;;;-145.42;100.00
49367;BME280;35245;52.026;8.540;2023-01-16T06:27:28;50879.88;;;-145.42;100.00
49367;BME280;35245;52.026;8.540;2023-01-16T06:29:55;50846.19;;;-145.42;100.00
49367;BME280;35245;52.026;8.540;2023-01-16T06:32:23;50838.25;;;-145.42;100.00
49367;BME280;35245;52.026;8.540;2023-01-16T06:34:50;50802.56;;;-145.42;100.00
49367;BME280;35245;52.026;8.540;2023-01-16T06:37:17;50808.53;;;-145.42;100.00
49367;BME280;35245;52.026;8.540;2023-01-16T06:39:45;50838.25;;;-145.42;100.00
49367;BME280;35245;52.026;8.540;2023-01-16T06:42:13;50858.06;;;-145.42;100.00
49367;BME280;35245;52.026;8.540;2023-01-16T06:44:40;50860.06;;;-145.42;100.00
49367;BME280;35245;52.026;8.540;2023-01-16T06:47:08;50881.88;;;-145.42;100.00
49367;BME280;35245;52.026;8.540;2023-01-16T06:49:35;50917.53;;;-145.42;100.00
49367;BME280;35245;52.026;8.540;2023-01-16T06:52:03;50869.97;;;-145.42;100.00
49367;BME280;35245;52.026;8.540;2023-01-16T06:54:30;50897.72;;;-145.42;100.00
49367;BME280;35245;52.026;8.540;2023-01-16T06:56:59;50883.84;;;-145.42;100.00
49367;BME280;35245;52.026;8.540;2023-01-16T06:59:26;50905.66;;;-145.42;100.00
49367;BME280;35245;52.026;8.540;2023-01-16T07:01:53;50929.44;;;-145.42;100.00
49367;BME280;35245;52.026;8.540;2023-01-16T07:04:20;50915.56;;;-145.42;100.00
49367;BME280;35245;52.026;8.540;2023-01-16T07:06:47;50889.78;;;-145.42;100.00
49367;BME280;35245;52.026;8.540;2023-01-16T07:09:16;50869.97;;;-145.42;100.00
49367;BME280;35245;52.026;8.540;2023-01-16T07:11:43;50897.72;;;-145.42;100.00
49367;BME280;35245;52.026;8.540;2023-01-16T07:14:12;50852.13;;;-145.42;100.00
49367;BME280;35245;52.026;8.540;2023-01-16T07:16:57;50871.94;;;-145.42;100.00
49367;BME280;35245;52.026;8.540;2023-01-16T07:19:56;50883.84;;;-145.42;100.00
49367;BME280;35245;52.026;8.540;2023-01-16T07:22:55;50885.81;;;-145.42;100.00
49367;BME280;35245;52.026;8.540;2023-01-16T07:25:32;50856.09;;;-145.42;100.00
49367;BME280;35245;52.026;8.540;2023-01-16T07:28:01;50848.16;;;-145.42;100.00
49367;BME280;35245;52.026;8.540;2023-01-16T07:30:29;50875.91;;;-145.42;100.00
49367;BME280;35245;52.026;8.540;2023-01-16T07:32:57;50891.78;;;-145.42;100.00
49367;BME280;35245;52.026;8.540;2023-01-16T07:35:24;50897.72;;;-145.42;100.00
49367;BME280;35245;52.026;8.540;2023-01-16T07:37:51;50883.84;;;-145.42;100.00
49367;BME280;35245;52.026;8.540;2023-01-16T07:40:22;50907.63;;;-145.42;100.00
49367;BME280;35245;52.026;8.540;2023-01-16T07:42:50;50885.81;;;-145.42;100.00
49367;BME280;35245;52.026;8.540;2023-01-16T07:45:17;50883.84;;;-145.42;100.00
49367;BME280;35245;52.026;8.540;2023-01-16T07:47:46;50883.84;;;-145.42;100.00
49367;BME280;35245;52.026;8.540;2023-01-16T07:50:13;50869.97;;;-145.42;100.00
49367;BME280;35245;52.026;8.540;2023-01-16T07:52:42;50877.91;;;-145.42;100.00
49367;BME280;35245;52.026;8.540;2023-01-16T07:55:10;50887.81;;;-145.42;100.00
49367;BME280;35245;52.026;8.540;2023-01-16T07:57:37;50893.75;;;-145.42;100.00
49367;BME280;35245;52.026;8.540;2023-01-16T08:00:09;50840.25;;;-145.42;100.00
49367;BME280;35245;52.026;8.540;2023-01-16T08:02:37;50848.16;;;-145.42;100.00
49367;BME280;35245;52.026;8.540;2023-01-16T08:05:07;50844.22;;;-145.42;100.00
49367;BME280;35245;52.026;8.540;2023-01-16T08:07:35;50800.59;;;-145.42;100.00
49367;BME280;35245;52.026;8.540;2023-01-16T08:10:02;50800.59;;;-145.42;100.00
49367;BME280;35245;52.026;8.540;2023-01-16T08:12:30;50840.25;;;-145.42;100.00
49367;BME280;35245;52.026;8.540;2023-01-16T08:14:57;50828.34;;;-145.42;100.00
49367;BME280;35245;52.026;8.540;2023-01-16T08:17:24;50844.22;;;-145.42;100.00
49367;BME280;35245;52.026;8.540;2023-01-16T08:19:51;50854.13;;;-145.42;100.00
49367;BME280;35245;52.026;8.540;2023-01-16T08:22:20;50826.38;;;-145.42;100.00
49367;BME280;35245;52.026;8.540;2023-01-16T08:24:47;50812.50;;;-145.42;100.00
49367;BME280;35245;52.026;8.540;2023-01-16T08:27:15;50832.31;;;-145.42;100.00
49367;BME280;35245;52.026;8.540;2023-01-16T08:29:42;50820.41;;;-145.42;100.00
49367;BME280;35245;52.026;8.540;2023-01-16T08:32:09;50850.16;;;-145.42;100.00
49367;BME280;35245;52.026;8.540;2023-01-16T08:34:36;50836.28;;;-145.42;100.00
49367;BME280;35245;52.026;8.540;2023-01-16T08:37:03;50850.16;;;-145.42;100.00
49367;BME280;35245;52.026;8.540;2023-01-16T08:39:34;50856.09;;;-145.42;100.00
49367;BME280;35245;52.026;8.540;2023-01-16T08:42:01;50858.06;;;-145.42;100.00
49367;BME280;35245;52.026;8.540;2023-01-16T08:44:45;50883.84;;;-145.42;100.00
49367;BME280;35245;52.026;8.540;2023-01-16T08:47:30;50917.53;;;-145.42;100.00
49367;BME280;35245;52.026;8.540;2023-01-16T08:50:17;50856.09;;;-145.42;100.00
49367;BME280;35245;52.026;8.540;2023-01-16T08:53:02;50860.06;;;-145.42;100.00
49367;BME280;35245;52.026;8.540;2023-01-16T08:55:31;50903.66;;;-145.42;100.00
49367;BME280;35245;52.026;8.540;2023-01-16T08:57:58;50858.06;;;-145.42;100.00
49367;BME280;35245;52.026;8.540;2023-01-16T09:00:26;50885.81;;;-145.42;100.00
49367;BME280;35245;52.026;8.540;2023-01-16T09:02:53;50885.81;;;-145.42;100.00
49367;BME280;35245;52.026;8.540;2023-01-16T09:05:22;50913.56;;;-145.42;100.00
49367;BME280;35245;52.026;8.540;2023-01-16T09:07:49;50873.94;;;-145.42;100.00
49367;BME280;35245;52.026;8.540;2023-01-16T09:10:17;50913.56;;;-145.42;100.00
49367;BME280;35245;52.026;8.540;2023-01-16T09:12:45;50868.00;;;-145.42;100.00
49367;BME280;35245;52.026;8.540;2023-01-16T09:15:30;50927.44;;;-145.42;100.00
49367;BME280;35245;52.026;8.540;2023-01-16T09:17:57;50899.69;;;-145.42;100.00
49367;BME280;35245;52.026;8.540;2023-01-16T09:20:25;50943.31;;;-145.42;100.00
49367;BME280;35245;52.026;8.540;2023-01-16T09:22:57;50917.53;;;-145.42;100.00
49367;BME280;35245;52.026;8.540;2023-01-16T09:25:24;50931.41;;;-145.42;100.00
49367;BME280;35245;52.026;8.540;2023-01-16T09:27:53;50935.38;;;-145.42;100.00
49367;BME280;35245;52.026;8.540;2023-01-16T09:30:21;50929.44;;;-145.42;100.00
49367;BME280;35245;52.026;8.540;2023-01-16T09:32:48;50947.28;;;-145.42;100.00
49367;BME280;35245;52.026;8.540;2023-01-16T09:35:15;50975.03;;;-145.42;100.00
49367;BME280;35245;52.026;8.540;2023-01-16T09:37:43;50957.19;;;-145.42;100.00
49367;BME280;35245;52.026;8.540;2023-01-16T09:40:16;50955.22;;;-145.42;100.00
49367;BME280;35245;52.026;8.540;2023-01-16T09:43:07;50943.31;;;-145.42;100.00
49367;BME280;35245;52.026;8.540;2023-01-16T09:45:57;50973.03;;;-145.42;100.00
49367;BME280;35245;52.026;8.540;2023-01-16T09:48:28;50988.91;;;-145.42;100.00
49367;BME280;35245;52.026;8.540;2023-01-16T09:51:02;50979.00;;;-145.42;100.00
49367;BME280;35245;52.026;8.540;2023-01-16T09:53:38;50996.84;;;-145.42;100.00
49367;BME280;35245;52.026;8.540;2023-01-16T09:56:28;50955.22;;;-145.42;100.00
49367;BME280;35245;52.026;8.540;2023-01-16T09:59:24;50977.00;;;-145.42;100.00
49367;BME280;35245;52.026;8.540;2023-01-16T10:02:00;50939.34;;;-145.42;100.00
49367;BME280;35245;52.026;8.540;2023-01-16T10:04:29;50979.00;;;-145.42;100.00
49367;BME280;35245;52.026;8.540;2023-01-16T10:07:27;50990.88;;;-145.42;100.00
49367;BME280;35245;52.026;8.540;2023-01-16T10:10:06;50919.53;;;-145.42;100.00
49367;BME280;35245;52.026;8.540;2023-01-16T10:12:39;50927.44;;;-145.42;100.00
49367;BME280;35245;52.026;8.540;2023-01-16T10:15:18;50949.25;;;-145.42;100.00
49367;BME280;35245;52.026;8.540;2023-01-16T10:17:59;50846.19;;;-145.42;100.00
49367;BME280;35245;52.026;8.540;2023-01-16T10:21:12;50864.03;;;-145.42;100.00
49367;BME280;35245;52.026;8.540;2023-01-16T10:23:52;50858.06;;;-145.42;100.00
49367;BME280;35245;52.026;8.540;2023-01-16T10:26:28;50846.19;;;-145.42;100.00
49367;BME280;35245;52.026;8.540;2023-01-16T10:29:06;50850.16;;;-145.42;100.00
49367;BME280;35245;52.026;8.540;2023-01-16T10:31:47;50877.91;;;-145.42;100.00
49367;BME280;35245;52.026;8.540;2023-01-16T10:34:20;50838.25;;;-145.42;100.00
49367;BME280;35245;52.026;8.540;2023-01-16T10:36:53;50881.88;;;-145.42;100.00
49367;BME280;35245;52.026;8.540;2023-01-16T10:39:29;50868.00;;;-145.42;100.00
49367;BME280;35245;52.026;8.540;2023-01-16T10:42:08;50879.88;;;-145.42;100.00
49367;BME280;35245;52.026;8.540;2023-01-16T10:44:58;50883.84;;;-145.42;100.00
49367;BME280;35245;52.026;8.540;2023-01-16T10:47:46;50903.66;;;-145.42;100.00
49367;BME280;35245;52.026;8.540;2023-01-16T10:50:30;50921.50;;;-145.42;100.00
49367;BME280;35245;52.026;8.540;2023-01-16T10:52:58;50921.50;;;-145.42;100.00
49367;BME280;35245;52.026;8.540;2023-01-16T10:55:25;50949.25;;;-145.42;100.00
49367;BME280;35245;52.026;8.540;2023-01-16T10:57:57;50971.06;;;-145.42;100.00
49367;BME280;35245;52.026;8.540;2023-01-16T11:00:29;50947.28;;;-145.42;100.00
49367;BME280;35245;52.026;8.540;2023-01-16T11:03:04;50913.56;;;-145.42;100.00
49367;BME280;35245;52.026;8.540;2023-01-16T11:05:36;50975.03;;;-145.42;100.00
49367;BME280;35245;52.026;8.540;2023-01-16T11:08:10;50905.66;;;-145.42;100.00
49367;BME280;35245;52.026;8.540;2023-01-16T11:10:39;50967.09;;;-145.42;100.00
49367;BME280;35245;52.026;8.540;2023-01-16T11:13:13;50959.16;;;-145.42;100.00
49367;BME280;35245;52.026;8.540;2023-01-16T11:16:04;50947.28;;;-145.42;100.00
49367;BME280;35245;52.026;8.540;2023-01-16T11:18:50;51016.66;;;-145.42;100.00
49367;BME280;35245;52.026;8.540;2023-01-16T11:21:25;51014.66;;;-145.42;100.00
49367;BME280;35245;52.026;8.540;2023-01-16T11:23:59;50988.91;;;-145.42;100.00
49367;BME280;35245;52.026;8.540;2023-01-16T11:26:26;50980.97;;;-145.42;100.00
49367;BME280;35245;52.026;8.540;2023-01-16T11:28:56;50967.09;;;-145.42;100.00
49367;BME280;35245;52.026;8.540;2023-01-16T11:31:27;51008.72;;;-145.42;100.00
49367;BME280;35245;52.026;8.540;2023-01-16T11:33:59;50994.84;;;-145.42;100.00
49367;BME280;35245;52.026;8.540;2023-01-16T11:36:33;51010.72;;;-145.42;100.00
49367;BME280;35245;52.026;8.540;2023-01-16T11:39:02;50996.84;;;-145.42;100.00
49367;BME280;35245;52.026;8.540;2023-01-16T11:41:35;51014.66;;;-145.42;100.00
49367;BME280;35245;52.026;8.540;2023-01-16T11:44:22;51008.72;;;-145.42;100.00
49367;BME280;35245;52.026;8.540;2023-01-16T11:47:12;51010.72;;;-145.42;100.00
49367;BME280;35245;52.026;8.540;2023-01-16T11:49:45;51032.50;;;-145.42;100.00
49367;BME280;35245;52.026;8.540;2023-01-16T11:52:15;51000.78;;;-145.42;100.00
49367;BME280;35245;52.026;8.540;2023-01-16T11:54:53;51008.72;;;-145.42;100.00
49367;BME280;35245;52.026;8.540;2023-01-16T11:57:40;51042.41;;;-145.42;100.00
49367;BME280;35245;52.026;8.540;2023-01-16T12:00:37;51020.63;;;-145.42;100.00
49367;BME280;35245;52.026;8.540;2023-01-16T12:06:21;51010.72;;;-145.42;100.00
49367;BME280;35245;52.026;8.540;2023-01-16T12:09:31;50996.84;;;-145.42;100.00
49367;BME280;35245;52.026;8.540;2023-01-16T12:12:13;51006.75;;;-145.42;100.00
49367;BME280;35245;52.026;8.540;2023-01-16T12:15:03;50986.91;;;-145.42;100.00
49367;BME280;35245;52.026;8.540;2023-01-16T12:17:46;50959.16;;;-145.42;100.00
49367;BME280;35245;52.026;8.540;2023-01-16T12:20:26;50998.81;;;-145.42;100.00
49367;BME280;35245;52.026;8.540;2023-01-16T12:23:28;50957.19;;;-145.42;100.00
49367;BME280;35245;52.026;8.540;2023-01-16T12:26:12;50951.25;;;-145.42;100.00
49367;BME280;35245;52.026;8.540;2023-01-16T12:28:57;50947.28;;;-145.42;100.00
49367;BME280;35245;52.026;8.540;2023-01-16T12:31:48;50923.50;;;-145.42;100.00
49367;BME280;35245;52.026;8.540;2023-01-16T12:34:50;50921.50;;;-145.42;100.00
49367;BME280;35245;52.026;8.540;2023-01-16T12:37:43;50935.38;;;-145.42;100.00
49367;BME280;35245;52.026;8.540;2023-01-16T12:40:33;50927.44;;;-145.42;100.00
49367;BME280;35245;52.026;8.540;2023-01-16T12:43:18;50971.06;;;-145.42;100.00
49367;BME280;35245;52.026;8.540;2023-01-16T12:45:52;50959.16;;;-145.42;100.00
49367;BME280;35245;52.026;8.540;2023-01-16T12:48:37;50947.28;;;-145.42;100.00
49367;BME280;35245;52.026;8.540;2023-01-16T12:51:31;50971.06;;;-145.42;100.00
49367;BME280;35245;52.026;8.540;2023-01-16T12:54:27;50988.91;;;-145.42;100.00
49367;BME280;35245;52.026;8.540;2023-01-16T12:57:29;50967.09;;;-145.42;100.00
49367;BME280;35245;52.026;8.540;2023-01-16T13:00:10;50975.03;;;-145.42;100.00
49367;BME280;35245;52.026;8.540;2023-01-16T13:02:43;50943.31;;;-145.42;100.00
49367;BME280;35245;52.026;8.540;2023-01-16T13:05:17;50971.06;;;-145.42;100.00
49367;BME280;35245;52.026;8.540;2023-01-16T13:07:53;50990.88;;;-145.42;100.00
49367;BME280;35245;52.026;8.540;2023-01-16T13:10:28;50998.81;;;-145.42;100.00